Maersk Durban — 9V5670 — position and weather

sailwx.info

Track history (hours):
 
Tides and Currents Weather Stations Pressure Air Temp Water Temp Dewpoint Dewpoint Depression Visibility Wind Speed Wind Dir Waves Ship Positions

Maersk Durban

Last reported at 2018-Apr-22 05:13 UTC. Time now 2018-Apr-27 05:07 UTC.
Position N 28°44' W 013°09'.

Length 208 m; draft 11 m.

Type: Ship. MMSI: 563035300.

Date/timePositionNaut miles runAvg speedWind from/ knotsBaromVisibWave heightAir tempDewpointWater temp
2018-Apr-22 05:13N 28°44' W 013°09'210.9
2018-Apr-22 05:01N 28°42' W 013°11'611.2
2018-Apr-22 04:31N 28°37' W 013°14'611.2
2018-Apr-22 03:57N 28°32' W 013°18'  
2018-Apr-18 03:55N 10°36' W 017°26'512.6
2018-Apr-18 03:30N 10°32' W 017°22'712.5
2018-Apr-18 02:58N 10°28' W 017°17'613.1
2018-Apr-18 02:30N 10°24' W 017°13'713.2
2018-Apr-18 02:00N 10°20' W 017°08'4113.7
2018-Apr-17 22:59N 09°52' W 016°36'3213.8
2018-Apr-17 20:38N 09°30' W 016°12'214.0
2018-Apr-17 20:30N 09°29' W 016°10'713.9
2018-Apr-17 20:00N 09°25' W 016°05'713.8
2018-Apr-17 19:29N 09°20' W 015°60'814.1
2018-Apr-17 18:54N 09°15' W 015°53'813.8
2018-Apr-17 18:18N 09°09' W 015°47'613.8
2018-Apr-17 17:52N 09°05' W 015°43'5513.9
2018-Apr-17 13:55N 08°29' W 015°01'1014.0
2018-Apr-17 13:13N 08°23' W 014°53'313.5
2018-Apr-17 13:00N 08°20' W 014°52'1913.7
2018-Apr-17 11:38N 08°08' W 014°37'213.5
2018-Apr-17 11:30N 08°07' W 014°36'6814.0
2018-Apr-17 06:40N 07°22' W 013°45'313.2
2018-Apr-17 06:26N 07°20' W 013°43'613.3
2018-Apr-17 06:00N 07°16' W 013°38'1413.2
2018-Apr-17 04:55N 07°07' W 013°27'  
Track history (hours):
 
Tides and Currents Weather Stations Pressure Air Temp Water Temp Dewpoint Dewpoint Depression Visibility Wind Speed Wind Dir Waves Ship Positions

Maersk Durban

Last reported at 2018-Apr-22 05:13 UTC. Time now 2018-Apr-27 05:07 UTC.
Position N 28°44' W 013°09'.

Length 208 m; draft 11 m.

Type: Ship. MMSI: 563035300.

Date/timePositionNaut miles runAvg speedWind from/ knotsBaromVisibWave heightAir tempDewpointWater temp
2018-Apr-22 05:13N 28°44' W 013°09'210.9
2018-Apr-22 05:01N 28°42' W 013°11'611.2
2018-Apr-22 04:31N 28°37' W 013°14'611.2
2018-Apr-22 03:57N 28°32' W 013°18'  
2018-Apr-18 03:55N 10°36' W 017°26'512.6
2018-Apr-18 03:30N 10°32' W 017°22'712.5
2018-Apr-18 02:58N 10°28' W 017°17'613.1
2018-Apr-18 02:30N 10°24' W 017°13'713.2
2018-Apr-18 02:00N 10°20' W 017°08'4113.7
2018-Apr-17 22:59N 09°52' W 016°36'3213.8
2018-Apr-17 20:38N 09°30' W 016°12'214.0
2018-Apr-17 20:30N 09°29' W 016°10'713.9
2018-Apr-17 20:00N 09°25' W 016°05'713.8
2018-Apr-17 19:29N 09°20' W 015°60'814.1
2018-Apr-17 18:54N 09°15' W 015°53'813.8
2018-Apr-17 18:18N 09°09' W 015°47'613.8
2018-Apr-17 17:52N 09°05' W 015°43'5513.9
2018-Apr-17 13:55N 08°29' W 015°01'1014.0
2018-Apr-17 13:13N 08°23' W 014°53'313.5
2018-Apr-17 13:00N 08°20' W 014°52'1913.7
2018-Apr-17 11:38N 08°08' W 014°37'213.5
2018-Apr-17 11:30N 08°07' W 014°36'6814.0
2018-Apr-17 06:40N 07°22' W 013°45'313.2
2018-Apr-17 06:26N 07°20' W 013°43'613.3
2018-Apr-17 06:00N 07°16' W 013°38'1413.2
2018-Apr-17 04:55N 07°07' W 013°27'  

Dump ship's entire track history